sensor_id;sensor_type;location;lat;lon;timestamp;P1;durP1;ratioP1;P2;durP2;ratioP2
74626;SDS011;63132;52.268;5.192;2023-02-15T00:00:52;71.70;;;44.40;;
74626;SDS011;63132;52.268;5.192;2023-02-15T00:03:20;68.38;;;44.08;;
74626;SDS011;63132;52.268;5.192;2023-02-15T00:05:46;70.28;;;45.10;;
74626;SDS011;63132;52.268;5.192;2023-02-15T00:08:11;73.13;;;44.40;;
74626;SDS011;63132;52.268;5.192;2023-02-15T00:10:37;72.83;;;45.47;;
74626;SDS011;63132;52.268;5.192;2023-02-15T00:13:02;69.70;;;45.13;;
74626;SDS011;63132;52.268;5.192;2023-02-15T00:15:28;70.17;;;43.80;;
74626;SDS011;63132;52.268;5.192;2023-02-15T00:17:53;68.10;;;44.20;;
74626;SDS011;63132;52.268;5.192;2023-02-15T00:20:18;68.63;;;44.45;;
74626;SDS011;63132;52.268;5.192;2023-02-15T00:22:44;70.20;;;45.27;;
74626;SDS011;63132;52.268;5.192;2023-02-15T00:25:09;70.43;;;44.97;;
74626;SDS011;63132;52.268;5.192;2023-02-15T00:27:35;68.93;;;44.37;;
74626;SDS011;63132;52.268;5.192;2023-02-15T00:30:00;69.53;;;44.93;;
74626;SDS011;63132;52.268;5.192;2023-02-15T00:32:26;69.05;;;42.25;;
74626;SDS011;63132;52.268;5.192;2023-02-15T00:34:51;68.85;;;44.60;;
74626;SDS011;63132;52.268;5.192;2023-02-15T00:37:16;70.60;;;46.13;;
74626;SDS011;63132;52.268;5.192;2023-02-15T00:39:42;72.87;;;46.40;;
74626;SDS011;63132;52.268;5.192;2023-02-15T00:42:07;76.03;;;47.10;;
74626;SDS011;63132;52.268;5.192;2023-02-15T00:44:33;73.95;;;47.03;;
74626;SDS011;63132;52.268;5.192;2023-02-15T00:46:58;77.00;;;47.67;;
74626;SDS011;63132;52.268;5.192;2023-02-15T00:49:23;74.50;;;46.50;;
74626;SDS011;63132;52.268;5.192;2023-02-15T00:51:49;72.40;;;46.50;;
74626;SDS011;63132;52.268;5.192;2023-02-15T00:54:14;71.53;;;45.83;;
74626;SDS011;63132;52.268;5.192;2023-02-15T00:56:40;70.90;;;45.43;;
74626;SDS011;63132;52.268;5.192;2023-02-15T00:59:05;75.73;;;46.03;;
74626;SDS011;63132;52.268;5.192;2023-02-15T01:01:30;68.33;;;44.30;;
74626;SDS011;63132;52.268;5.192;2023-02-15T01:03:56;67.23;;;45.67;;
74626;SDS011;63132;52.268;5.192;2023-02-15T01:06:21;67.00;;;44.67;;
74626;SDS011;63132;52.268;5.192;2023-02-15T01:08:47;67.07;;;43.78;;
74626;SDS011;63132;52.268;5.192;2023-02-15T01:11:14;67.18;;;44.53;;
74626;SDS011;63132;52.268;5.192;2023-02-15T01:13:53;63.22;;;43.15;;
74626;SDS011;63132;52.268;5.192;2023-02-15T01:16:21;66.50;;;42.37;;
74626;SDS011;63132;52.268;5.192;2023-02-15T01:18:48;67.00;;;44.38;;
74626;SDS011;63132;52.268;5.192;2023-02-15T01:21:14;68.70;;;46.13;;
74626;SDS011;63132;52.268;5.192;2023-02-15T01:23:41;74.65;;;48.38;;
74626;SDS011;63132;52.268;5.192;2023-02-15T01:26:07;75.80;;;49.40;;
74626;SDS011;63132;52.268;5.192;2023-02-15T01:28:33;74.13;;;48.75;;
74626;SDS011;63132;52.268;5.192;2023-02-15T01:30:59;83.55;;;51.05;;
74626;SDS011;63132;52.268;5.192;2023-02-15T01:33:28;87.20;;;54.92;;
74626;SDS011;63132;52.268;5.192;2023-02-15T01:35:57;89.93;;;55.22;;
74626;SDS011;63132;52.268;5.192;2023-02-15T01:38:23;84.15;;;52.00;;
74626;SDS011;63132;52.268;5.192;2023-02-15T01:40:52;81.87;;;50.87;;
74626;SDS011;63132;52.268;5.192;2023-02-15T01:43:18;85.35;;;52.40;;
74626;SDS011;63132;52.268;5.192;2023-02-15T01:45:43;76.05;;;48.72;;
74626;SDS011;63132;52.268;5.192;2023-02-15T01:48:20;79.50;;;49.67;;
74626;SDS011;63132;52.268;5.192;2023-02-15T01:50:52;82.07;;;50.40;;
74626;SDS011;63132;52.268;5.192;2023-02-15T01:56:01;82.03;;;51.50;;
74626;SDS011;63132;52.268;5.192;2023-02-15T01:58:31;82.95;;;51.42;;
74626;SDS011;63132;52.268;5.192;2023-02-15T02:00:58;78.80;;;49.42;;
74626;SDS011;63132;52.268;5.192;2023-02-15T02:06:28;80.18;;;50.28;;
74626;SDS011;63132;52.268;5.192;2023-02-15T02:08:54;82.10;;;49.77;;
74626;SDS011;63132;52.268;5.192;2023-02-15T02:11:21;76.60;;;48.90;;
74626;SDS011;63132;52.268;5.192;2023-02-15T02:13:47;74.03;;;48.13;;
74626;SDS011;63132;52.268;5.192;2023-02-15T02:21:11;75.15;;;47.30;;
74626;SDS011;63132;52.268;5.192;2023-02-15T02:37:43;88.05;;;53.33;;
74626;SDS011;63132;52.268;5.192;2023-02-15T02:40:19;78.82;;;50.22;;
74626;SDS011;63132;52.268;5.192;2023-02-15T02:43:02;82.13;;;49.72;;
74626;SDS011;63132;52.268;5.192;2023-02-15T02:45:36;76.50;;;48.38;;
74626;SDS011;63132;52.268;5.192;2023-02-15T02:48:10;71.15;;;47.10;;
74626;SDS011;63132;52.268;5.192;2023-02-15T02:50:40;77.40;;;46.63;;
74626;SDS011;63132;52.268;5.192;2023-02-15T02:53:06;72.68;;;46.97;;
74626;SDS011;63132;52.268;5.192;2023-02-15T02:55:44;77.75;;;47.17;;
74626;SDS011;63132;52.268;5.192;2023-02-15T02:58:15;79.28;;;48.70;;
74626;SDS011;63132;52.268;5.192;2023-02-15T03:00:50;79.45;;;49.05;;
74626;SDS011;63132;52.268;5.192;2023-02-15T03:03:37;77.28;;;48.35;;
74626;SDS011;63132;52.268;5.192;2023-02-15T03:06:07;75.55;;;47.45;;
74626;SDS011;63132;52.268;5.192;2023-02-15T03:08:38;76.57;;;47.83;;
74626;SDS011;63132;52.268;5.192;2023-02-15T03:11:07;78.32;;;49.33;;
74626;SDS011;63132;52.268;5.192;2023-02-15T03:13:33;78.50;;;47.10;;
74626;SDS011;63132;52.268;5.192;2023-02-15T03:16:00;75.60;;;48.10;;
74626;SDS011;63132;52.268;5.192;2023-02-15T03:18:46;74.07;;;47.13;;
74626;SDS011;63132;52.268;5.192;2023-02-15T03:21:24;70.47;;;46.90;;
74626;SDS011;63132;52.268;5.192;2023-02-15T03:24:30;69.80;;;45.38;;
74626;SDS011;63132;52.268;5.192;2023-02-15T03:27:00;75.05;;;45.88;;
74626;SDS011;63132;52.268;5.192;2023-02-15T03:29:29;68.40;;;45.35;;
74626;SDS011;63132;52.268;5.192;2023-02-15T03:31:58;73.60;;;46.60;;
74626;SDS011;63132;52.268;5.192;2023-02-15T03:34:26;71.60;;;45.85;;
74626;SDS011;63132;52.268;5.192;2023-02-15T03:36:55;73.63;;;46.13;;
74626;SDS011;63132;52.268;5.192;2023-02-15T03:39:33;83.05;;;48.53;;
74626;SDS011;63132;52.268;5.192;2023-02-15T03:45:14;75.32;;;48.05;;
74626;SDS011;63132;52.268;5.192;2023-02-15T03:47:43;80.22;;;48.40;;
74626;SDS011;63132;52.268;5.192;2023-02-15T03:53:09;74.75;;;45.70;;
74626;SDS011;63132;52.268;5.192;2023-02-15T03:55:38;73.78;;;46.40;;
74626;SDS011;63132;52.268;5.192;2023-02-15T03:58:04;69.15;;;44.33;;
74626;SDS011;63132;52.268;5.192;2023-02-15T04:00:58;75.57;;;46.03;;
74626;SDS011;63132;52.268;5.192;2023-02-15T04:03:55;76.63;;;46.83;;
74626;SDS011;63132;52.268;5.192;2023-02-15T04:06:24;77.28;;;47.03;;
74626;SDS011;63132;52.268;5.192;2023-02-15T04:08:49;79.63;;;48.23;;
74626;SDS011;63132;52.268;5.192;2023-02-15T04:11:33;76.00;;;46.60;;
74626;SDS011;63132;52.268;5.192;2023-02-15T04:13:58;73.97;;;45.17;;
74626;SDS011;63132;52.268;5.192;2023-02-15T04:16:44;68.38;;;44.47;;
74626;SDS011;63132;52.268;5.192;2023-02-15T04:19:09;74.32;;;45.10;;
74626;SDS011;63132;52.268;5.192;2023-02-15T04:21:53;66.20;;;42.15;;
74626;SDS011;63132;52.268;5.192;2023-02-15T04:24:37;75.10;;;45.00;;
74626;SDS011;63132;52.268;5.192;2023-02-15T04:27:21;73.57;;;46.10;;
74626;SDS011;63132;52.268;5.192;2023-02-15T04:29:46;73.40;;;44.83;;
74626;SDS011;63132;52.268;5.192;2023-02-15T04:32:14;69.13;;;43.58;;
74626;SDS011;63132;52.268;5.192;2023-02-15T04:34:40;70.00;;;43.33;;
74626;SDS011;63132;52.268;5.192;2023-02-15T04:37:05;68.40;;;42.70;;
74626;SDS011;63132;52.268;5.192;2023-02-15T04:39:30;66.53;;;41.47;;
74626;SDS011;63132;52.268;5.192;2023-02-15T04:41:57;69.28;;;42.38;;
74626;SDS011;63132;52.268;5.192;2023-02-15T04:44:22;71.03;;;42.53;;
74626;SDS011;63132;52.268;5.192;2023-02-15T04:46:48;70.73;;;43.17;;
74626;SDS011;63132;52.268;5.192;2023-02-15T04:49:13;66.93;;;42.13;;
74626;SDS011;63132;52.268;5.192;2023-02-15T04:51:39;67.17;;;41.40;;
74626;SDS011;63132;52.268;5.192;2023-02-15T04:54:04;67.22;;;42.05;;
74626;SDS011;63132;52.268;5.192;2023-02-15T04:56:29;65.35;;;40.40;;
74626;SDS011;63132;52.268;5.192;2023-02-15T04:58:56;66.22;;;41.03;;
74626;SDS011;63132;52.268;5.192;2023-02-15T05:01:21;67.10;;;39.90;;
74626;SDS011;63132;52.268;5.192;2023-02-15T05:03:46;67.23;;;39.87;;
74626;SDS011;63132;52.268;5.192;2023-02-15T05:06:12;63.47;;;39.35;;
74626;SDS011;63132;52.268;5.192;2023-02-15T05:08:37;72.07;;;42.53;;
74626;SDS011;63132;52.268;5.192;2023-02-15T05:11:02;70.23;;;41.53;;
74626;SDS011;63132;52.268;5.192;2023-02-15T05:13:28;64.47;;;40.30;;
74626;SDS011;63132;52.268;5.192;2023-02-15T05:15:53;64.13;;;39.07;;
74626;SDS011;63132;52.268;5.192;2023-02-15T05:18:20;64.85;;;39.67;;
74626;SDS011;63132;52.268;5.192;2023-02-15T05:20:46;66.23;;;40.33;;
74626;SDS011;63132;52.268;5.192;2023-02-15T05:23:12;66.90;;;40.05;;
74626;SDS011;63132;52.268;5.192;2023-02-15T05:25:38;61.83;;;38.87;;
74626;SDS011;63132;52.268;5.192;2023-02-15T05:28:23;64.00;;;39.50;;
74626;SDS011;63132;52.268;5.192;2023-02-15T05:30:50;62.03;;;39.53;;
74626;SDS011;63132;52.268;5.192;2023-02-15T05:33:24;65.28;;;39.63;;
74626;SDS011;63132;52.268;5.192;2023-02-15T05:35:50;60.93;;;39.77;;
74626;SDS011;63132;52.268;5.192;2023-02-15T05:38:16;64.63;;;41.10;;
74626;SDS011;63132;52.268;5.192;2023-02-15T05:40:41;60.57;;;39.37;;
74626;SDS011;63132;52.268;5.192;2023-02-15T05:43:07;62.37;;;39.13;;
74626;SDS011;63132;52.268;5.192;2023-02-15T05:45:32;59.70;;;38.70;;
74626;SDS011;63132;52.268;5.192;2023-02-15T05:47:57;60.00;;;38.43;;
74626;SDS011;63132;52.268;5.192;2023-02-15T05:50:23;61.17;;;40.07;;
74626;SDS011;63132;52.268;5.192;2023-02-15T05:52:49;59.78;;;38.38;;
74626;SDS011;63132;52.268;5.192;2023-02-15T05:55:14;61.83;;;38.58;;
74626;SDS011;63132;52.268;5.192;2023-02-15T05:57:40;58.40;;;37.57;;
74626;SDS011;63132;52.268;5.192;2023-02-15T06:00:05;60.07;;;38.13;;
74626;SDS011;63132;52.268;5.192;2023-02-15T06:02:34;61.70;;;37.00;;
74626;SDS011;63132;52.268;5.192;2023-02-15T06:05:01;59.05;;;37.58;;
74626;SDS011;63132;52.268;5.192;2023-02-15T06:07:26;60.05;;;37.65;;
74626;SDS011;63132;52.268;5.192;2023-02-15T06:09:52;59.72;;;37.45;;
74626;SDS011;63132;52.268;5.192;2023-02-15T06:12:17;65.07;;;38.67;;
74626;SDS011;63132;52.268;5.192;2023-02-15T06:14:42;61.47;;;37.53;;
74626;SDS011;63132;52.268;5.192;2023-02-15T06:17:08;66.10;;;38.70;;
74626;SDS011;63132;52.268;5.192;2023-02-15T06:19:33;64.93;;;39.30;;
74626;SDS011;63132;52.268;5.192;2023-02-15T06:21:59;63.65;;;37.92;;
74626;SDS011;63132;52.268;5.192;2023-02-15T06:24:24;58.93;;;36.67;;
74626;SDS011;63132;52.268;5.192;2023-02-15T06:26:49;64.10;;;38.20;;
74626;SDS011;63132;52.268;5.192;2023-02-15T06:29:15;58.00;;;37.13;;
74626;SDS011;63132;52.268;5.192;2023-02-15T06:31:40;63.30;;;36.37;;
74626;SDS011;63132;52.268;5.192;2023-02-15T06:34:06;58.60;;;35.53;;
74626;SDS011;63132;52.268;5.192;2023-02-15T06:36:31;62.33;;;36.10;;
74626;SDS011;63132;52.268;5.192;2023-02-15T06:38:57;61.42;;;36.35;;
74626;SDS011;63132;52.268;5.192;2023-02-15T06:41:22;59.50;;;35.22;;
74626;SDS011;63132;52.268;5.192;2023-02-15T06:43:48;59.35;;;35.60;;
74626;SDS011;63132;52.268;5.192;2023-02-15T06:46:13;57.13;;;36.05;;
74626;SDS011;63132;52.268;5.192;2023-02-15T06:48:39;55.78;;;34.95;;
74626;SDS011;63132;52.268;5.192;2023-02-15T06:51:04;59.75;;;36.72;;
74626;SDS011;63132;52.268;5.192;2023-02-15T06:53:30;63.75;;;36.47;;
74626;SDS011;63132;52.268;5.192;2023-02-15T06:56:02;61.90;;;37.27;;
74626;SDS011;63132;52.268;5.192;2023-02-15T06:58:31;58.70;;;37.07;;
74626;SDS011;63132;52.268;5.192;2023-02-15T07:00:57;58.83;;;36.40;;
74626;SDS011;63132;52.268;5.192;2023-02-15T07:03:22;61.38;;;36.47;;
74626;SDS011;63132;52.268;5.192;2023-02-15T07:05:48;60.80;;;35.47;;
74626;SDS011;63132;52.268;5.192;2023-02-15T07:08:14;58.08;;;35.72;;
74626;SDS011;63132;52.268;5.192;2023-02-15T07:10:42;66.00;;;38.53;;
74626;SDS011;63132;52.268;5.192;2023-02-15T07:13:08;66.57;;;39.20;;
74626;SDS011;63132;52.268;5.192;2023-02-15T07:15:34;62.87;;;37.77;;
74626;SDS011;63132;52.268;5.192;2023-02-15T07:17:59;63.53;;;38.00;;
74626;SDS011;63132;52.268;5.192;2023-02-15T07:20:25;65.47;;;37.97;;
74626;SDS011;63132;52.268;5.192;2023-02-15T07:22:50;62.05;;;37.58;;
74626;SDS011;63132;52.268;5.192;2023-02-15T07:25:16;75.60;;;43.70;;
74626;SDS011;63132;52.268;5.192;2023-02-15T07:27:42;78.30;;;44.65;;
74626;SDS011;63132;52.268;5.192;2023-02-15T07:30:10;69.68;;;40.67;;
74626;SDS011;63132;52.268;5.192;2023-02-15T07:32:37;77.50;;;43.08;;
74626;SDS011;63132;52.268;5.192;2023-02-15T07:35:22;86.93;;;46.22;;
74626;SDS011;63132;52.268;5.192;2023-02-15T07:37:48;77.73;;;45.10;;
74626;SDS011;63132;52.268;5.192;2023-02-15T07:40:13;82.20;;;46.27;;
74626;SDS011;63132;52.268;5.192;2023-02-15T07:42:38;83.65;;;47.28;;
74626;SDS011;63132;52.268;5.192;2023-02-15T07:45:04;81.35;;;45.28;;
74626;SDS011;63132;52.268;5.192;2023-02-15T07:47:29;80.93;;;46.03;;
74626;SDS011;63132;52.268;5.192;2023-02-15T07:49:55;73.53;;;43.93;;
74626;SDS011;63132;52.268;5.192;2023-02-15T07:52:20;75.57;;;43.17;;
74626;SDS011;63132;52.268;5.192;2023-02-15T07:54:45;70.60;;;42.83;;
74626;SDS011;63132;52.268;5.192;2023-02-15T07:57:11;68.70;;;39.30;;
74626;SDS011;63132;52.268;5.192;2023-02-15T07:59:36;71.93;;;41.10;;
74626;SDS011;63132;52.268;5.192;2023-02-15T08:02:02;70.03;;;40.90;;
74626;SDS011;63132;52.268;5.192;2023-02-15T08:04:27;74.47;;;44.47;;
74626;SDS011;63132;52.268;5.192;2023-02-15T08:06:53;69.90;;;42.77;;
74626;SDS011;63132;52.268;5.192;2023-02-15T08:09:19;70.65;;;41.17;;
74626;SDS011;63132;52.268;5.192;2023-02-15T08:11:45;69.72;;;42.35;;
74626;SDS011;63132;52.268;5.192;2023-02-15T08:14:16;66.53;;;41.15;;
74626;SDS011;63132;52.268;5.192;2023-02-15T08:16:50;73.35;;;43.10;;
74626;SDS011;63132;52.268;5.192;2023-02-15T08:19:18;70.82;;;43.00;;
74626;SDS011;63132;52.268;5.192;2023-02-15T08:21:49;78.85;;;45.17;;
74626;SDS011;63132;52.268;5.192;2023-02-15T08:24:20;75.90;;;44.97;;
74626;SDS011;63132;52.268;5.192;2023-02-15T08:26:46;85.80;;;48.30;;
74626;SDS011;63132;52.268;5.192;2023-02-15T08:29:15;82.18;;;47.47;;
74626;SDS011;63132;52.268;5.192;2023-02-15T08:31:42;80.07;;;47.78;;
74626;SDS011;63132;52.268;5.192;2023-02-15T08:34:09;82.47;;;48.97;;
74626;SDS011;63132;52.268;5.192;2023-02-15T08:36:36;81.50;;;47.33;;
74626;SDS011;63132;52.268;5.192;2023-02-15T08:39:02;78.90;;;47.45;;
74626;SDS011;63132;52.268;5.192;2023-02-15T08:41:31;81.47;;;47.85;;
74626;SDS011;63132;52.268;5.192;2023-02-15T08:43:59;82.22;;;50.10;;
74626;SDS011;63132;52.268;5.192;2023-02-15T08:46:28;88.77;;;50.87;;
74626;SDS011;63132;52.268;5.192;2023-02-15T08:48:55;82.33;;;49.20;;
74626;SDS011;63132;52.268;5.192;2023-02-15T08:51:25;78.03;;;46.80;;
74626;SDS011;63132;52.268;5.192;2023-02-15T08:53:53;76.28;;;46.95;;
74626;SDS011;63132;52.268;5.192;2023-02-15T08:56:22;74.47;;;45.03;;
74626;SDS011;63132;52.268;5.192;2023-02-15T08:58:49;82.20;;;47.13;;
74626;SDS011;63132;52.268;5.192;2023-02-15T09:01:15;75.27;;;44.40;;
74626;SDS011;63132;52.268;5.192;2023-02-15T09:03:51;71.37;;;44.00;;
74626;SDS011;63132;52.268;5.192;2023-02-15T09:06:21;71.93;;;44.35;;
74626;SDS011;63132;52.268;5.192;2023-02-15T09:08:48;68.18;;;43.25;;
74626;SDS011;63132;52.268;5.192;2023-02-15T09:11:15;65.65;;;42.80;;
74626;SDS011;63132;52.268;5.192;2023-02-15T09:13:51;68.35;;;43.38;;
74626;SDS011;63132;52.268;5.192;2023-02-15T09:16:22;69.00;;;43.22;;
74626;SDS011;63132;52.268;5.192;2023-02-15T09:18:49;72.78;;;44.97;;
74626;SDS011;63132;52.268;5.192;2023-02-15T09:21:17;72.07;;;45.33;;
74626;SDS011;63132;52.268;5.192;2023-02-15T09:23:45;71.55;;;44.33;;
74626;SDS011;63132;52.268;5.192;2023-02-15T09:26:13;71.38;;;44.40;;
74626;SDS011;63132;52.268;5.192;2023-02-15T09:28:40;65.35;;;41.80;;
74626;SDS011;63132;52.268;5.192;2023-02-15T09:33:33;63.35;;;40.30;;
74626;SDS011;63132;52.268;5.192;2023-02-15T09:35:59;64.68;;;39.65;;
74626;SDS011;63132;52.268;5.192;2023-02-15T09:38:25;64.78;;;39.58;;
74626;SDS011;63132;52.268;5.192;2023-02-15T09:40:55;62.20;;;40.63;;
74626;SDS011;63132;52.268;5.192;2023-02-15T09:43:53;62.92;;;38.80;;
74626;SDS011;63132;52.268;5.192;2023-02-15T10:00:45;59.47;;;38.37;;
74626;SDS011;63132;52.268;5.192;2023-02-15T10:17:02;58.83;;;37.75;;
74626;SDS011;63132;52.268;5.192;2023-02-15T10:22:59;61.38;;;39.10;;
74626;SDS011;63132;52.268;5.192;2023-02-15T10:28:30;60.13;;;37.45;;
74626;SDS011;63132;52.268;5.192;2023-02-15T10:34:08;57.70;;;35.70;;
74626;SDS011;63132;52.268;5.192;2023-02-15T11:02:08;53.50;;;33.65;;
74626;SDS011;63132;52.268;5.192;2023-02-15T11:07:11;53.55;;;32.47;;
74626;SDS011;63132;52.268;5.192;2023-02-15T11:09:42;51.75;;;31.40;;
74626;SDS011;63132;52.268;5.192;2023-02-15T11:12:13;56.05;;;32.83;;
74626;SDS011;63132;52.268;5.192;2023-02-15T11:14:58;51.78;;;31.08;;
74626;SDS011;63132;52.268;5.192;2023-02-15T11:17:36;50.10;;;30.20;;
74626;SDS011;63132;52.268;5.192;2023-02-15T11:20:23;51.07;;;31.67;;
74626;SDS011;63132;52.268;5.192;2023-02-15T11:22:54;52.53;;;32.20;;
74626;SDS011;63132;52.268;5.192;2023-02-15T11:25:24;49.37;;;31.40;;
74626;SDS011;63132;52.268;5.192;2023-02-15T11:27:53;50.85;;;31.33;;
74626;SDS011;63132;52.268;5.192;2023-02-15T11:30:21;55.03;;;32.60;;
74626;SDS011;63132;52.268;5.192;2023-02-15T11:32:55;53.05;;;32.53;;
74626;SDS011;63132;52.268;5.192;2023-02-15T11:35:35;54.47;;;35.23;;
74626;SDS011;63132;52.268;5.192;2023-02-15T11:38:12;49.45;;;32.72;;
74626;SDS011;63132;52.268;5.192;2023-02-15T11:40:48;53.55;;;33.70;;
74626;SDS011;63132;52.268;5.192;2023-02-15T11:45:51;52.50;;;33.47;;
74626;SDS011;63132;52.268;5.192;2023-02-15T11:48:16;53.60;;;34.23;;
74626;SDS011;63132;52.268;5.192;2023-02-15T11:50:43;55.78;;;34.85;;
74626;SDS011;63132;52.268;5.192;2023-02-15T11:53:10;53.58;;;34.03;;
74626;SDS011;63132;52.268;5.192;2023-02-15T11:55:41;51.28;;;33.22;;
74626;SDS011;63132;52.268;5.192;2023-02-15T11:58:12;51.17;;;34.45;;
74626;SDS011;63132;52.268;5.192;2023-02-15T12:01:02;48.10;;;32.95;;
74626;SDS011;63132;52.268;5.192;2023-02-15T12:06:13;50.22;;;32.90;;
74626;SDS011;63132;52.268;5.192;2023-02-15T12:08:59;51.95;;;33.40;;
74626;SDS011;63132;52.268;5.192;2023-02-15T12:11:31;53.33;;;33.97;;
74626;SDS011;63132;52.268;5.192;2023-02-15T12:14:01;57.92;;;34.47;;
74626;SDS011;63132;52.268;5.192;2023-02-15T12:16:32;50.80;;;34.20;;
74626;SDS011;63132;52.268;5.192;2023-02-15T12:19:13;52.17;;;34.53;;
74626;SDS011;63132;52.268;5.192;2023-02-15T12:21:44;51.53;;;33.45;;
74626;SDS011;63132;52.268;5.192;2023-02-15T12:24:21;51.15;;;33.17;;
74626;SDS011;63132;52.268;5.192;2023-02-15T12:27:13;50.40;;;33.37;;
74626;SDS011;63132;52.268;5.192;2023-02-15T12:29:42;51.92;;;33.53;;
74626;SDS011;63132;52.268;5.192;2023-02-15T12:32:47;49.63;;;33.03;;
74626;SDS011;63132;52.268;5.192;2023-02-15T12:35:21;51.77;;;33.57;;
74626;SDS011;63132;52.268;5.192;2023-02-15T12:37:55;53.05;;;34.22;;
74626;SDS011;63132;52.268;5.192;2023-02-15T12:40:30;50.78;;;34.88;;
74626;SDS011;63132;52.268;5.192;2023-02-15T12:42:57;48.03;;;32.15;;
74626;SDS011;63132;52.268;5.192;2023-02-15T12:45:25;52.03;;;34.53;;
74626;SDS011;63132;52.268;5.192;2023-02-15T12:55:54;52.42;;;34.50;;
74626;SDS011;63132;52.268;5.192;2023-02-15T12:58:21;51.53;;;34.70;;
74626;SDS011;63132;52.268;5.192;2023-02-15T13:03:33;57.78;;;37.38;;
74626;SDS011;63132;52.268;5.192;2023-02-15T13:06:00;54.70;;;34.50;;
74626;SDS011;63132;52.268;5.192;2023-02-15T13:08:33;55.03;;;34.90;;
74626;SDS011;63132;52.268;5.192;2023-02-15T13:13:30;56.40;;;35.17;;
74626;SDS011;63132;52.268;5.192;2023-02-15T13:15:58;54.87;;;36.13;;
74626;SDS011;63132;52.268;5.192;2023-02-15T13:21:06;52.40;;;34.10;;
74626;SDS011;63132;52.268;5.192;2023-02-15T13:23:37;52.58;;;34.35;;
74626;SDS011;63132;52.268;5.192;2023-02-15T13:26:05;51.33;;;34.45;;
74626;SDS011;63132;52.268;5.192;2023-02-15T13:28:42;51.05;;;33.25;;
74626;SDS011;63132;52.268;5.192;2023-02-15T13:31:14;52.45;;;35.28;;
74626;SDS011;63132;52.268;5.192;2023-02-15T13:33:44;51.95;;;35.08;;
74626;SDS011;63132;52.268;5.192;2023-02-15T13:36:26;54.67;;;35.85;;
74626;SDS011;63132;52.268;5.192;2023-02-15T13:39:01;54.40;;;35.53;;
74626;SDS011;63132;52.268;5.192;2023-02-15T13:49:37;60.08;;;38.72;;
74626;SDS011;63132;52.268;5.192;2023-02-15T13:52:25;54.95;;;36.90;;
74626;SDS011;63132;52.268;5.192;2023-02-15T14:08:59;56.58;;;38.45;;
74626;SDS011;63132;52.268;5.192;2023-02-15T14:22:18;50.80;;;34.25;;
74626;SDS011;63132;52.268;5.192;2023-02-15T14:25:02;52.88;;;34.83;;
74626;SDS011;63132;52.268;5.192;2023-02-15T14:30:22;54.80;;;34.88;;
74626;SDS011;63132;52.268;5.192;2023-02-15T14:32:53;55.67;;;35.17;;
74626;SDS011;63132;52.268;5.192;2023-02-15T14:35:27;51.40;;;35.10;;
74626;SDS011;63132;52.268;5.192;2023-02-15T14:37:58;54.42;;;35.30;;
74626;SDS011;63132;52.268;5.192;2023-02-15T14:45:53;50.93;;;34.33;;
74626;SDS011;63132;52.268;5.192;2023-02-15T14:48:24;54.00;;;34.93;;
74626;SDS011;63132;52.268;5.192;2023-02-15T14:55:01;50.90;;;33.27;;
74626;SDS011;63132;52.268;5.192;2023-02-15T14:57:26;46.90;;;32.30;;
74626;SDS011;63132;52.268;5.192;2023-02-15T15:02:41;43.97;;;29.38;;
74626;SDS011;63132;52.268;5.192;2023-02-15T15:07:52;51.67;;;31.30;;
74626;SDS011;63132;52.268;5.192;2023-02-15T15:15:13;51.08;;;29.45;;
74626;SDS011;63132;52.268;5.192;2023-02-15T15:28:07;53.70;;;31.98;;
74626;SDS011;63132;52.268;5.192;2023-02-15T15:33:11;60.53;;;34.88;;
74626;SDS011;63132;52.268;5.192;2023-02-15T15:47:05;60.65;;;33.47;;
74626;SDS011;63132;52.268;5.192;2023-02-15T15:49:35;59.75;;;35.13;;
74626;SDS011;63132;52.268;5.192;2023-02-15T15:52:08;59.17;;;34.13;;
74626;SDS011;63132;52.268;5.192;2023-02-15T15:54:39;61.80;;;33.07;;
74626;SDS011;63132;52.268;5.192;2023-02-15T15:57:05;57.17;;;35.13;;
74626;SDS011;63132;52.268;5.192;2023-02-15T15:59:43;62.45;;;35.42;;
74626;SDS011;63132;52.268;5.192;2023-02-15T16:02:11;60.00;;;34.97;;
74626;SDS011;63132;52.268;5.192;2023-02-15T16:04:43;62.67;;;36.03;;
74626;SDS011;63132;52.268;5.192;2023-02-15T16:09:40;60.88;;;34.03;;
74626;SDS011;63132;52.268;5.192;2023-02-15T16:12:13;61.47;;;34.83;;
74626;SDS011;63132;52.268;5.192;2023-02-15T16:14:42;62.15;;;34.65;;
74626;SDS011;63132;52.268;5.192;2023-02-15T16:17:17;64.35;;;35.53;;
74626;SDS011;63132;52.268;5.192;2023-02-15T16:19:47;62.88;;;36.17;;
74626;SDS011;63132;52.268;5.192;2023-02-15T16:22:15;62.30;;;34.50;;
74626;SDS011;63132;52.268;5.192;2023-02-15T16:27:20;72.20;;;38.17;;
74626;SDS011;63132;52.268;5.192;2023-02-15T16:29:56;68.93;;;37.75;;
74626;SDS011;63132;52.268;5.192;2023-02-15T16:32:25;70.18;;;39.40;;
74626;SDS011;63132;52.268;5.192;2023-02-15T16:34:56;73.45;;;38.13;;
74626;SDS011;63132;52.268;5.192;2023-02-15T16:37:24;67.00;;;38.63;;
74626;SDS011;63132;52.268;5.192;2023-02-15T16:39:56;64.05;;;38.55;;
74626;SDS011;63132;52.268;5.192;2023-02-15T16:42:21;70.85;;;38.10;;
74626;SDS011;63132;52.268;5.192;2023-02-15T16:44:49;76.15;;;38.60;;
74626;SDS011;63132;52.268;5.192;2023-02-15T16:47:19;69.30;;;37.60;;
74626;SDS011;63132;52.268;5.192;2023-02-15T16:49:49;70.70;;;39.35;;
74626;SDS011;63132;52.268;5.192;2023-02-15T16:52:22;67.40;;;37.10;;
74626;SDS011;63132;52.268;5.192;2023-02-15T16:54:51;69.72;;;37.88;;
74626;SDS011;63132;52.268;5.192;2023-02-15T16:57:24;77.93;;;39.38;;
74626;SDS011;63132;52.268;5.192;2023-02-15T16:59:53;73.18;;;38.67;;
74626;SDS011;63132;52.268;5.192;2023-02-15T17:02:27;70.15;;;37.63;;
74626;SDS011;63132;52.268;5.192;2023-02-15T17:07:38;77.25;;;38.78;;
74626;SDS011;63132;52.268;5.192;2023-02-15T17:10:25;69.25;;;38.55;;
74626;SDS011;63132;52.268;5.192;2023-02-15T17:12:54;71.05;;;36.20;;
74626;SDS011;63132;52.268;5.192;2023-02-15T17:15:27;71.97;;;38.08;;
74626;SDS011;63132;52.268;5.192;2023-02-15T17:17:58;78.70;;;41.30;;
74626;SDS011;63132;52.268;5.192;2023-02-15T17:20:26;73.10;;;40.05;;
74626;SDS011;63132;52.268;5.192;2023-02-15T17:22:52;74.72;;;41.42;;
74626;SDS011;63132;52.268;5.192;2023-02-15T17:25:24;77.88;;;42.22;;
74626;SDS011;63132;52.268;5.192;2023-02-15T17:27:58;78.35;;;42.13;;
74626;SDS011;63132;52.268;5.192;2023-02-15T17:30:26;78.75;;;43.42;;
74626;SDS011;63132;52.268;5.192;2023-02-15T17:33:02;75.93;;;40.70;;
74626;SDS011;63132;52.268;5.192;2023-02-15T17:35:29;71.35;;;39.42;;
74626;SDS011;63132;52.268;5.192;2023-02-15T17:38:00;79.28;;;40.35;;
74626;SDS011;63132;52.268;5.192;2023-02-15T17:40:34;79.45;;;41.15;;
74626;SDS011;63132;52.268;5.192;2023-02-15T17:43:01;74.43;;;38.33;;
74626;SDS011;63132;52.268;5.192;2023-02-15T17:45:33;80.35;;;42.28;;
74626;SDS011;63132;52.268;5.192;2023-02-15T17:48:01;69.25;;;38.92;;
74626;SDS011;63132;52.268;5.192;2023-02-15T17:50:30;74.68;;;41.05;;
74626;SDS011;63132;52.268;5.192;2023-02-15T17:52:57;106.90;;;54.33;;
74626;SDS011;63132;52.268;5.192;2023-02-15T17:55:23;80.97;;;45.20;;
74626;SDS011;63132;52.268;5.192;2023-02-15T17:58:15;81.90;;;44.25;;
74626;SDS011;63132;52.268;5.192;2023-02-15T18:00:54;69.60;;;39.30;;
74626;SDS011;63132;52.268;5.192;2023-02-15T18:03:44;65.90;;;36.60;;